sensor_id;sensor_type;location;lat;lon;timestamp;pressure;altitude;pressure_sealevel;temperature;humidity
72308;BME280;60257;42.638;23.376;2024-01-10T00:01:14;95636.69;;;-5.26;77.44
72308;BME280;60257;42.638;23.376;2024-01-10T00:03:39;95652.78;;;-5.14;77.39
72308;BME280;60257;42.638;23.376;2024-01-10T00:06:05;95646.25;;;-5.18;76.90
72308;BME280;60257;42.638;23.376;2024-01-10T00:08:31;95648.13;;;-5.19;77.17
72308;BME280;60257;42.638;23.376;2024-01-10T00:10:56;95652.78;;;-5.14;76.82
72308;BME280;60257;42.638;23.376;2024-01-10T00:13:22;95649.69;;;-5.11;76.35
72308;BME280;60257;42.638;23.376;2024-01-10T00:15:48;95649.50;;;-5.16;76.53
72308;BME280;60257;42.638;23.376;2024-01-10T00:18:13;95659.47;;;-5.23;76.85
72308;BME280;60257;42.638;23.376;2024-01-10T00:20:39;95652.28;;;-5.23;77.14
72308;BME280;60257;42.638;23.376;2024-01-10T00:23:05;95666.97;;;-5.14;78.32
72308;BME280;60257;42.638;23.376;2024-01-10T00:25:33;95663.28;;;-5.13;77.71
72308;BME280;60257;42.638;23.376;2024-01-10T00:27:59;95659.56;;;-5.12;77.06
72308;BME280;60257;42.638;23.376;2024-01-10T00:30:25;95660.22;;;-5.16;75.95
72308;BME280;60257;42.638;23.376;2024-01-10T00:32:50;95661.84;;;-5.15;76.08
72308;BME280;60257;42.638;23.376;2024-01-10T00:35:16;95664.66;;;-5.10;76.07
72308;BME280;60257;42.638;23.376;2024-01-10T00:37:41;95669.34;;;-5.24;76.92
72308;BME280;60257;42.638;23.376;2024-01-10T00:40:07;95665.03;;;-5.25;77.67
72308;BME280;60257;42.638;23.376;2024-01-10T00:42:33;95661.19;;;-5.29;76.49
72308;BME280;60257;42.638;23.376;2024-01-10T00:44:58;95661.19;;;-5.29;76.67
72308;BME280;60257;42.638;23.376;2024-01-10T00:47:23;95666.38;;;-5.34;76.95
72308;BME280;60257;42.638;23.376;2024-01-10T00:49:49;95669.66;;;-5.32;77.23
72308;BME280;60257;42.638;23.376;2024-01-10T00:52:14;95668.03;;;-5.33;77.94
72308;BME280;60257;42.638;23.376;2024-01-10T00:54:39;95671.06;;;-5.29;77.96
72308;BME280;60257;42.638;23.376;2024-01-10T00:57:05;95672.13;;;-5.30;78.24
72308;BME280;60257;42.638;23.376;2024-01-10T00:59:30;95671.06;;;-5.29;79.88
72308;BME280;60257;42.638;23.376;2024-01-10T01:01:56;95664.78;;;-5.35;79.22
72308;BME280;60257;42.638;23.376;2024-01-10T01:04:21;95674.78;;;-5.30;79.63
72308;BME280;60257;42.638;23.376;2024-01-10T01:06:46;95665.13;;;-5.31;77.93
72308;BME280;60257;42.638;23.376;2024-01-10T01:09:12;95673.53;;;-5.28;77.31
72308;BME280;60257;42.638;23.376;2024-01-10T01:11:40;95666.56;;;-5.29;76.78
72308;BME280;60257;42.638;23.376;2024-01-10T01:14:06;95667.19;;;-5.33;77.49
72308;BME280;60257;42.638;23.376;2024-01-10T01:16:32;95665.00;;;-5.36;77.54
72308;BME280;60257;42.638;23.376;2024-01-10T01:18:57;95666.31;;;-5.46;77.19
72308;BME280;60257;42.638;23.376;2024-01-10T01:21:22;95663.72;;;-5.52;77.47
72308;BME280;60257;42.638;23.376;2024-01-10T01:23:48;95666.75;;;-5.49;77.75
72308;BME280;60257;42.638;23.376;2024-01-10T01:26:13;95665.59;;;-5.53;77.01
72308;BME280;60257;42.638;23.376;2024-01-10T01:28:39;95660.91;;;-5.57;77.21
72308;BME280;60257;42.638;23.376;2024-01-10T01:31:05;95657.03;;;-5.61;76.80
72308;BME280;60257;42.638;23.376;2024-01-10T01:33:30;95664.84;;;-5.60;78.50
72308;BME280;60257;42.638;23.376;2024-01-10T01:35:56;95660.47;;;-5.54;78.39
72308;BME280;60257;42.638;23.376;2024-01-10T01:38:21;95641.31;;;-5.51;77.93
72308;BME280;60257;42.638;23.376;2024-01-10T01:40:47;95646.38;;;-5.43;77.34
72308;BME280;60257;42.638;23.376;2024-01-10T01:43:25;95646.41;;;-5.50;79.33
72308;BME280;60257;42.638;23.376;2024-01-10T01:45:55;95640.63;;;-5.47;80.11
72308;BME280;60257;42.638;23.376;2024-01-10T01:48:22;95647.53;;;-5.39;78.53
72308;BME280;60257;42.638;23.376;2024-01-10T01:50:51;95650.81;;;-5.37;79.00
72308;BME280;60257;42.638;23.376;2024-01-10T01:53:17;95649.56;;;-5.34;78.20
72308;BME280;60257;42.638;23.376;2024-01-10T01:55:45;95644.88;;;-5.39;77.05
72308;BME280;60257;42.638;23.376;2024-01-10T01:58:11;95634.25;;;-5.46;77.37
72308;BME280;60257;42.638;23.376;2024-01-10T02:00:38;95625.84;;;-5.49;77.22
72308;BME280;60257;42.638;23.376;2024-01-10T02:03:09;95621.31;;;-5.49;78.04
72308;BME280;60257;42.638;23.376;2024-01-10T02:05:34;95637.97;;;-5.47;77.98
72308;BME280;60257;42.638;23.376;2024-01-10T02:08:00;95629.94;;;-5.47;78.50
72308;BME280;60257;42.638;23.376;2024-01-10T02:10:25;95625.28;;;-5.51;78.00
72308;BME280;60257;42.638;23.376;2024-01-10T02:12:51;95620.59;;;-5.56;77.88
72308;BME280;60257;42.638;23.376;2024-01-10T02:15:16;95620.03;;;-5.58;77.78
72308;BME280;60257;42.638;23.376;2024-01-10T02:17:42;95626.53;;;-5.54;77.77
72308;BME280;60257;42.638;23.376;2024-01-10T02:20:12;95626.41;;;-5.59;78.05
72308;BME280;60257;42.638;23.376;2024-01-10T02:22:38;95620.06;;;-5.64;78.07
72308;BME280;60257;42.638;23.376;2024-01-10T02:25:11;95629.66;;;-5.57;77.79
72308;BME280;60257;42.638;23.376;2024-01-10T02:27:37;95641.00;;;-5.61;77.69
72308;BME280;60257;42.638;23.376;2024-01-10T02:30:04;95625.38;;;-5.58;78.07
72308;BME280;60257;42.638;23.376;2024-01-10T02:32:30;95638.63;;;-5.69;77.98
72308;BME280;60257;42.638;23.376;2024-01-10T02:34:56;95635.16;;;-5.70;78.67
72308;BME280;60257;42.638;23.376;2024-01-10T02:37:22;95637.97;;;-5.65;78.21
72308;BME280;60257;42.638;23.376;2024-01-10T02:39:48;95633.38;;;-5.58;77.97
72308;BME280;60257;42.638;23.376;2024-01-10T02:42:13;95633.13;;;-5.56;78.00
72308;BME280;60257;42.638;23.376;2024-01-10T02:44:38;95626.22;;;-5.64;78.40
72308;BME280;60257;42.638;23.376;2024-01-10T02:47:05;95634.50;;;-5.65;80.00
72308;BME280;60257;42.638;23.376;2024-01-10T02:49:30;95635.75;;;-5.68;80.58
72308;BME280;60257;42.638;23.376;2024-01-10T02:51:56;95636.56;;;-5.67;81.13
72308;BME280;60257;42.638;23.376;2024-01-10T02:54:21;95624.25;;;-5.68;81.77
72308;BME280;60257;42.638;23.376;2024-01-10T02:56:46;95641.09;;;-5.68;81.17
72308;BME280;60257;42.638;23.376;2024-01-10T02:59:12;95637.16;;;-5.65;79.07
72308;BME280;60257;42.638;23.376;2024-01-10T03:01:37;95641.91;;;-5.67;80.53
72308;BME280;60257;42.638;23.376;2024-01-10T03:04:03;95641.31;;;-5.69;79.77
72308;BME280;60257;42.638;23.376;2024-01-10T03:06:28;95648.88;;;-5.66;80.49
72308;BME280;60257;42.638;23.376;2024-01-10T03:08:54;95642.25;;;-5.64;80.55
72308;BME280;60257;42.638;23.376;2024-01-10T03:11:20;95630.75;;;-5.64;81.24
72308;BME280;60257;42.638;23.376;2024-01-10T03:13:46;95641.00;;;-5.61;80.31
72308;BME280;60257;42.638;23.376;2024-01-10T03:16:12;95639.31;;;-5.56;80.67
72308;BME280;60257;42.638;23.376;2024-01-10T03:18:38;95640.84;;;-5.48;80.75
72308;BME280;60257;42.638;23.376;2024-01-10T03:21:04;95633.88;;;-5.49;81.12
72308;BME280;60257;42.638;23.376;2024-01-10T03:23:29;95634.63;;;-5.42;79.77
72308;BME280;60257;42.638;23.376;2024-01-10T03:25:56;95639.50;;;-5.39;80.71
72308;BME280;60257;42.638;23.376;2024-01-10T03:28:21;95640.94;;;-5.36;79.71
72308;BME280;60257;42.638;23.376;2024-01-10T03:30:47;95644.78;;;-5.32;77.34
72308;BME280;60257;42.638;23.376;2024-01-10T03:33:12;95648.22;;;-5.44;76.33
72308;BME280;60257;42.638;23.376;2024-01-10T03:35:38;95646.50;;;-5.56;77.50
72308;BME280;60257;42.638;23.376;2024-01-10T03:38:03;95645.47;;;-5.55;77.79
72308;BME280;60257;42.638;23.376;2024-01-10T03:40:29;95644.28;;;-5.59;80.09
72308;BME280;60257;42.638;23.376;2024-01-10T03:42:54;95636.91;;;-5.64;79.78
72308;BME280;60257;42.638;23.376;2024-01-10T03:45:20;95625.19;;;-5.63;78.88
72308;BME280;60257;42.638;23.376;2024-01-10T03:47:46;95634.94;;;-5.68;77.74
72308;BME280;60257;42.638;23.376;2024-01-10T03:50:16;95631.56;;;-5.64;77.30
72308;BME280;60257;42.638;23.376;2024-01-10T03:52:43;95644.19;;;-5.71;76.87
72308;BME280;60257;42.638;23.376;2024-01-10T03:55:08;95655.91;;;-5.72;77.04
72308;BME280;60257;42.638;23.376;2024-01-10T03:57:34;95651.09;;;-5.82;77.28
72308;BME280;60257;42.638;23.376;2024-01-10T03:59:59;95640.75;;;-5.90;77.40
72308;BME280;60257;42.638;23.376;2024-01-10T04:02:26;95658.22;;;-5.94;77.86
72308;BME280;60257;42.638;23.376;2024-01-10T04:04:53;95646.94;;;-5.96;77.44
72308;BME280;60257;42.638;23.376;2024-01-10T04:07:18;95661.06;;;-5.89;77.22
72308;BME280;60257;42.638;23.376;2024-01-10T04:09:44;95654.75;;;-5.94;78.52
72308;BME280;60257;42.638;23.376;2024-01-10T04:12:09;95654.91;;;-5.89;78.66
72308;BME280;60257;42.638;23.376;2024-01-10T04:14:35;95663.16;;;-5.91;78.79
72308;BME280;60257;42.638;23.376;2024-01-10T04:17:00;95656.97;;;-5.91;79.25
72308;BME280;60257;42.638;23.376;2024-01-10T04:19:26;95652.47;;;-5.91;77.54
72308;BME280;60257;42.638;23.376;2024-01-10T04:21:52;95651.19;;;-5.88;76.91
72308;BME280;60257;42.638;23.376;2024-01-10T04:24:17;95654.53;;;-5.93;77.07
72308;BME280;60257;42.638;23.376;2024-01-10T04:26:42;95653.78;;;-6.00;77.07
72308;BME280;60257;42.638;23.376;2024-01-10T04:29:08;95667.28;;;-5.95;77.52
72308;BME280;60257;42.638;23.376;2024-01-10T04:31:33;95672.63;;;-5.95;77.19
72308;BME280;60257;42.638;23.376;2024-01-10T04:34:01;95666.25;;;-5.94;77.81
72308;BME280;60257;42.638;23.376;2024-01-10T04:36:26;95679.06;;;-5.84;77.48
72308;BME280;60257;42.638;23.376;2024-01-10T04:38:51;95686.25;;;-5.85;76.62
72308;BME280;60257;42.638;23.376;2024-01-10T04:41:17;95685.00;;;-5.82;78.05
72308;BME280;60257;42.638;23.376;2024-01-10T04:43:43;95682.88;;;-5.73;77.39
72308;BME280;60257;42.638;23.376;2024-01-10T04:46:08;95684.13;;;-5.76;77.21
72308;BME280;60257;42.638;23.376;2024-01-10T04:48:36;95681.03;;;-5.73;77.77
72308;BME280;60257;42.638;23.376;2024-01-10T04:51:01;95685.25;;;-5.65;76.65
72308;BME280;60257;42.638;23.376;2024-01-10T04:53:26;95688.28;;;-5.62;75.75
72308;BME280;60257;42.638;23.376;2024-01-10T04:55:52;95687.94;;;-5.65;75.84
72308;BME280;60257;42.638;23.376;2024-01-10T04:58:17;95702.47;;;-5.61;76.44
72308;BME280;60257;42.638;23.376;2024-01-10T05:00:43;95693.63;;;-5.62;77.01
72308;BME280;60257;42.638;23.376;2024-01-10T05:03:08;95693.84;;;-5.63;78.40
72308;BME280;60257;42.638;23.376;2024-01-10T05:05:33;95685.84;;;-5.63;79.12
72308;BME280;60257;42.638;23.376;2024-01-10T05:07:59;95693.34;;;-5.54;76.57
72308;BME280;60257;42.638;23.376;2024-01-10T05:10:26;95686.81;;;-5.58;75.92
72308;BME280;60257;42.638;23.376;2024-01-10T05:12:51;95691.34;;;-5.58;77.56
72308;BME280;60257;42.638;23.376;2024-01-10T05:15:17;95686.06;;;-5.65;78.46
72308;BME280;60257;42.638;23.376;2024-01-10T05:17:42;95695.72;;;-5.64;79.28
72308;BME280;60257;42.638;23.376;2024-01-10T05:20:08;95695.56;;;-5.69;79.46
72308;BME280;60257;42.638;23.376;2024-01-10T05:22:34;95695.78;;;-5.70;79.20
72308;BME280;60257;42.638;23.376;2024-01-10T05:25:00;95699.25;;;-5.70;79.37
72308;BME280;60257;42.638;23.376;2024-01-10T05:27:26;95704.81;;;-5.71;78.70
72308;BME280;60257;42.638;23.376;2024-01-10T05:29:52;95706.69;;;-5.72;78.55
72308;BME280;60257;42.638;23.376;2024-01-10T05:32:17;95696.81;;;-5.71;78.22
72308;BME280;60257;42.638;23.376;2024-01-10T05:34:43;95711.97;;;-5.65;78.14
72308;BME280;60257;42.638;23.376;2024-01-10T05:37:09;95710.91;;;-5.64;77.80
72308;BME280;60257;42.638;23.376;2024-01-10T05:39:34;95709.00;;;-5.57;76.85
72308;BME280;60257;42.638;23.376;2024-01-10T05:42:00;95717.63;;;-5.55;75.12
72308;BME280;60257;42.638;23.376;2024-01-10T05:44:27;95713.69;;;-5.53;74.17
72308;BME280;60257;42.638;23.376;2024-01-10T05:46:53;95722.16;;;-5.56;73.96
72308;BME280;60257;42.638;23.376;2024-01-10T05:49:18;95716.78;;;-5.56;73.98
72308;BME280;60257;42.638;23.376;2024-01-10T05:51:43;95719.03;;;-5.53;74.71
72308;BME280;60257;42.638;23.376;2024-01-10T05:54:09;95714.72;;;-5.54;73.64
72308;BME280;60257;42.638;23.376;2024-01-10T05:56:34;95714.72;;;-5.54;74.00
72308;BME280;60257;42.638;23.376;2024-01-10T05:58:59;95724.16;;;-5.51;73.30
72308;BME280;60257;42.638;23.376;2024-01-10T06:01:26;95723.13;;;-5.50;73.57
72308;BME280;60257;42.638;23.376;2024-01-10T06:03:51;95725.94;;;-5.45;73.20
72308;BME280;60257;42.638;23.376;2024-01-10T06:06:16;95720.59;;;-5.45;72.30
72308;BME280;60257;42.638;23.376;2024-01-10T06:08:42;95730.19;;;-5.37;72.37
72308;BME280;60257;42.638;23.376;2024-01-10T06:11:08;95722.84;;;-5.42;74.30
72308;BME280;60257;42.638;23.376;2024-01-10T06:13:35;95731.44;;;-5.40;74.67
72308;BME280;60257;42.638;23.376;2024-01-10T06:16:02;95727.94;;;-5.40;74.25
72308;BME280;60257;42.638;23.376;2024-01-10T06:18:27;95734.03;;;-5.33;75.29
72308;BME280;60257;42.638;23.376;2024-01-10T06:20:53;95733.81;;;-5.32;74.37
72308;BME280;60257;42.638;23.376;2024-01-10T06:23:18;95733.75;;;-5.25;74.63
72308;BME280;60257;42.638;23.376;2024-01-10T06:25:44;95740.50;;;-5.23;75.46
72308;BME280;60257;42.638;23.376;2024-01-10T06:28:09;95738.22;;;-5.19;75.47
72308;BME280;60257;42.638;23.376;2024-01-10T06:30:34;95742.91;;;-5.15;75.34
72308;BME280;60257;42.638;23.376;2024-01-10T06:33:00;95747.81;;;-5.12;75.33
72308;BME280;60257;42.638;23.376;2024-01-10T06:35:26;95737.13;;;-5.12;74.56
72308;BME280;60257;42.638;23.376;2024-01-10T06:37:51;95745.69;;;-5.10;74.41
72308;BME280;60257;42.638;23.376;2024-01-10T06:40:18;95746.69;;;-5.04;75.26
72308;BME280;60257;42.638;23.376;2024-01-10T06:42:43;95753.34;;;-4.95;75.13
72308;BME280;60257;42.638;23.376;2024-01-10T06:45:09;95758.47;;;-4.93;75.01
72308;BME280;60257;42.638;23.376;2024-01-10T06:47:36;95757.22;;;-4.91;73.16
72308;BME280;60257;42.638;23.376;2024-01-10T06:50:03;95739.69;;;-5.05;71.08
72308;BME280;60257;42.638;23.376;2024-01-10T06:52:30;95762.28;;;-5.01;70.41
72308;BME280;60257;42.638;23.376;2024-01-10T06:54:56;95767.84;;;-5.03;71.34
72308;BME280;60257;42.638;23.376;2024-01-10T06:57:22;95765.78;;;-5.19;71.60
72308;BME280;60257;42.638;23.376;2024-01-10T06:59:47;95768.59;;;-5.14;72.25
72308;BME280;60257;42.638;23.376;2024-01-10T07:02:13;95771.63;;;-5.10;72.89
72308;BME280;60257;42.638;23.376;2024-01-10T07:04:38;95767.69;;;-5.08;73.16
72308;BME280;60257;42.638;23.376;2024-01-10T07:07:04;95768.38;;;-4.94;72.11
72308;BME280;60257;42.638;23.376;2024-01-10T07:09:29;95768.81;;;-4.97;71.45
72308;BME280;60257;42.638;23.376;2024-01-10T07:11:55;95765.91;;;-4.95;71.87
72308;BME280;60257;42.638;23.376;2024-01-10T07:14:20;95761.03;;;-4.98;71.17
72308;BME280;60257;42.638;23.376;2024-01-10T07:16:45;95772.84;;;-4.88;72.57
72308;BME280;60257;42.638;23.376;2024-01-10T07:19:13;95778.53;;;-4.84;71.64
72308;BME280;60257;42.638;23.376;2024-01-10T07:21:39;95779.28;;;-4.77;71.92
72308;BME280;60257;42.638;23.376;2024-01-10T07:24:05;95774.22;;;-4.67;70.85
72308;BME280;60257;42.638;23.376;2024-01-10T07:26:31;95785.59;;;-4.72;69.69
72308;BME280;60257;42.638;23.376;2024-01-10T07:28:56;95776.91;;;-4.85;67.98
72308;BME280;60257;42.638;23.376;2024-01-10T07:31:21;95779.59;;;-4.85;67.95
72308;BME280;60257;42.638;23.376;2024-01-10T07:33:48;95785.66;;;-4.78;67.74
72308;BME280;60257;42.638;23.376;2024-01-10T07:36:13;95779.28;;;-4.77;67.67
72308;BME280;60257;42.638;23.376;2024-01-10T07:38:39;95790.38;;;-4.74;66.97
72308;BME280;60257;42.638;23.376;2024-01-10T07:41:04;95783.28;;;-4.68;67.11
72308;BME280;60257;42.638;23.376;2024-01-10T07:43:30;95801.59;;;-4.65;65.76
72308;BME280;60257;42.638;23.376;2024-01-10T07:45:55;95791.66;;;-4.65;65.25
72308;BME280;60257;42.638;23.376;2024-01-10T07:48:20;95800.16;;;-4.68;63.97
72308;BME280;60257;42.638;23.376;2024-01-10T07:50:46;95798.75;;;-4.70;64.15
72308;BME280;60257;42.638;23.376;2024-01-10T07:53:11;95804.41;;;-4.60;64.61
72308;BME280;60257;42.638;23.376;2024-01-10T07:55:38;95806.03;;;-4.59;64.12
72308;BME280;60257;42.638;23.376;2024-01-10T07:58:03;95794.13;;;-4.63;64.19
72308;BME280;60257;42.638;23.376;2024-01-10T08:00:30;95790.50;;;-4.69;62.96
72308;BME280;60257;42.638;23.376;2024-01-10T08:02:56;95804.41;;;-4.60;64.43
72308;BME280;60257;42.638;23.376;2024-01-10T08:05:23;95795.34;;;-4.59;63.21
72308;BME280;60257;42.638;23.376;2024-01-10T08:07:49;95802.91;;;-4.56;63.44
72308;BME280;60257;42.638;23.376;2024-01-10T08:10:14;95796.28;;;-4.53;62.30
72308;BME280;60257;42.638;23.376;2024-01-10T08:12:40;95807.81;;;-4.53;62.51
72308;BME280;60257;42.638;23.376;2024-01-10T08:15:10;95801.63;;;-4.53;62.06
72308;BME280;60257;42.638;23.376;2024-01-10T08:17:35;95805.03;;;-4.46;62.23
72308;BME280;60257;42.638;23.376;2024-01-10T08:20:04;95813.22;;;-4.41;62.51
72308;BME280;60257;42.638;23.376;2024-01-10T08:22:31;95813.50;;;-4.31;63.25
72308;BME280;60257;42.638;23.376;2024-01-10T08:24:56;95808.00;;;-4.36;62.74
72308;BME280;60257;42.638;23.376;2024-01-10T08:27:22;95803.72;;;-4.26;62.31
72308;BME280;60257;42.638;23.376;2024-01-10T08:29:48;95806.06;;;-4.29;61.89
72308;BME280;60257;42.638;23.376;2024-01-10T08:32:13;95801.53;;;-4.29;61.13
72308;BME280;60257;42.638;23.376;2024-01-10T08:34:40;95812.47;;;-4.30;62.00
72308;BME280;60257;42.638;23.376;2024-01-10T08:37:05;95806.81;;;-4.40;61.31
72308;BME280;60257;42.638;23.376;2024-01-10T08:39:31;95814.84;;;-4.40;62.38
72308;BME280;60257;42.638;23.376;2024-01-10T08:41:57;95806.59;;;-4.39;62.90
72308;BME280;60257;42.638;23.376;2024-01-10T08:44:22;95809.19;;;-4.32;62.99
72308;BME280;60257;42.638;23.376;2024-01-10T08:46:48;95807.78;;;-4.35;63.04
72308;BME280;60257;42.638;23.376;2024-01-10T08:49:13;95816.91;;;-4.24;63.94
72308;BME280;60257;42.638;23.376;2024-01-10T08:51:39;95814.50;;;-4.14;64.33
72308;BME280;60257;42.638;23.376;2024-01-10T08:54:06;95810.09;;;-4.08;63.09
72308;BME280;60257;42.638;23.376;2024-01-10T08:56:31;95813.25;;;-4.00;62.41
72308;BME280;60257;42.638;23.376;2024-01-10T08:58:57;95819.44;;;-3.99;63.22
72308;BME280;60257;42.638;23.376;2024-01-10T09:01:22;95807.34;;;-3.90;63.47
72308;BME280;60257;42.638;23.376;2024-01-10T09:03:48;95802.59;;;-3.88;62.86
72308;BME280;60257;42.638;23.376;2024-01-10T09:06:14;95809.31;;;-3.97;61.48
72308;BME280;60257;42.638;23.376;2024-01-10T09:08:39;95809.53;;;-3.99;62.55
72308;BME280;60257;42.638;23.376;2024-01-10T09:11:05;95802.78;;;-4.01;62.85
72308;BME280;60257;42.638;23.376;2024-01-10T09:13:31;95800.00;;;-3.95;62.48
72308;BME280;60257;42.638;23.376;2024-01-10T09:15:56;95793.25;;;-3.85;63.34
72308;BME280;60257;42.638;23.376;2024-01-10T09:18:22;95800.53;;;-3.74;61.59
72308;BME280;60257;42.638;23.376;2024-01-10T09:20:47;95811.69;;;-3.77;61.51
72308;BME280;60257;42.638;23.376;2024-01-10T09:23:15;95802.94;;;-3.84;62.05
72308;BME280;60257;42.638;23.376;2024-01-10T09:25:41;95809.00;;;-3.77;62.39
72308;BME280;60257;42.638;23.376;2024-01-10T09:28:06;95811.47;;;-3.88;61.10
72308;BME280;60257;42.638;23.376;2024-01-10T09:30:31;95801.31;;;-3.85;61.87
72308;BME280;60257;42.638;23.376;2024-01-10T09:32:57;95807.53;;;-3.73;63.12
72308;BME280;60257;42.638;23.376;2024-01-10T09:35:22;95796.56;;;-3.72;62.70
72308;BME280;60257;42.638;23.376;2024-01-10T09:37:48;95798.09;;;-3.64;62.98
72308;BME280;60257;42.638;23.376;2024-01-10T09:40:15;95797.28;;;-3.53;63.52
72308;BME280;60257;42.638;23.376;2024-01-10T09:42:41;95796.13;;;-3.45;62.90
72308;BME280;60257;42.638;23.376;2024-01-10T09:45:10;95786.91;;;-3.38;63.17
72308;BME280;60257;42.638;23.376;2024-01-10T09:47:39;95786.34;;;-3.28;63.22
72308;BME280;60257;42.638;23.376;2024-01-10T09:50:05;95786.44;;;-3.23;62.21
72308;BME280;60257;42.638;23.376;2024-01-10T09:52:34;95790.31;;;-3.19;62.34
72308;BME280;60257;42.638;23.376;2024-01-10T09:55:03;95788.34;;;-3.12;62.15
72308;BME280;60257;42.638;23.376;2024-01-10T09:57:29;95793.22;;;-3.09;62.73
72308;BME280;60257;42.638;23.376;2024-01-10T09:59:56;95787.75;;;-3.02;63.10
72308;BME280;60257;42.638;23.376;2024-01-10T10:02:23;95784.94;;;-2.96;62.65
72308;BME280;60257;42.638;23.376;2024-01-10T10:05:03;95781.88;;;-2.88;62.14
72308;BME280;60257;42.638;23.376;2024-01-10T10:07:29;95768.81;;;-2.84;60.56
72308;BME280;60257;42.638;23.376;2024-01-10T10:09:55;95764.97;;;-2.88;58.97
72308;BME280;60257;42.638;23.376;2024-01-10T10:12:42;95770.66;;;-2.85;59.98
72308;BME280;60257;42.638;23.376;2024-01-10T10:15:15;95774.28;;;-2.79;61.38
72308;BME280;60257;42.638;23.376;2024-01-10T10:17:44;95764.69;;;-2.75;61.41
72308;BME280;60257;42.638;23.376;2024-01-10T10:20:23;95754.63;;;-2.68;62.19
72308;BME280;60257;42.638;23.376;2024-01-10T10:28:02;95744.50;;;-2.78;60.55
72308;BME280;60257;42.638;23.376;2024-01-10T10:30:29;95727.69;;;-2.73;61.66
72308;BME280;60257;42.638;23.376;2024-01-10T10:32:55;95737.94;;;-2.58;62.21
72308;BME280;60257;42.638;23.376;2024-01-10T10:35:21;95720.25;;;-2.54;62.66
72308;BME280;60257;42.638;23.376;2024-01-10T10:37:50;95721.72;;;-2.35;63.44
72308;BME280;60257;42.638;23.376;2024-01-10T10:40:17;95716.53;;;-2.25;63.06
72308;BME280;60257;42.638;23.376;2024-01-10T10:42:48;95707.81;;;-2.15;62.87
72308;BME280;60257;42.638;23.376;2024-01-10T10:45:18;95715.72;;;-2.09;61.98
72308;BME280;60257;42.638;23.376;2024-01-10T10:47:45;95711.81;;;-2.01;63.88
72308;BME280;60257;42.638;23.376;2024-01-10T10:50:20;95716.97;;;-2.00;62.16
72308;BME280;60257;42.638;23.376;2024-01-10T10:52:47;95704.44;;;-1.94;62.34
72308;BME280;60257;42.638;23.376;2024-01-10T10:55:15;95705.16;;;-1.82;61.59
72308;BME280;60257;42.638;23.376;2024-01-10T10:57:45;95694.19;;;-1.80;60.59
72308;BME280;60257;42.638;23.376;2024-01-10T11:00:13;95691.16;;;-1.84;60.37
72308;BME280;60257;42.638;23.376;2024-01-10T11:02:41;95692.78;;;-1.83;60.17
72308;BME280;60257;42.638;23.376;2024-01-10T11:05:08;95685.13;;;-1.91;59.75
72308;BME280;60257;42.638;23.376;2024-01-10T11:07:42;95681.38;;;-1.90;60.39
72308;BME280;60257;42.638;23.376;2024-01-10T11:10:16;95684.41;;;-1.86;60.19
72308;BME280;60257;42.638;23.376;2024-01-10T11:15:51;95680.63;;;-1.85;59.88
72308;BME280;60257;42.638;23.376;2024-01-10T11:23:54;95673.72;;;-1.81;59.33
72308;BME280;60257;42.638;23.376;2024-01-10T11:26:21;95664.38;;;-1.79;60.32
72308;BME280;60257;42.638;23.376;2024-01-10T11:28:47;95672.25;;;-1.72;59.52
72308;BME280;60257;42.638;23.376;2024-01-10T11:31:14;95657.66;;;-1.76;59.52
72308;BME280;60257;42.638;23.376;2024-01-10T11:33:41;95644.91;;;-1.86;59.84
72308;BME280;60257;42.638;23.376;2024-01-10T11:36:18;95659.13;;;-1.69;60.09
72308;BME280;60257;42.638;23.376;2024-01-10T11:39:03;95656.25;;;-1.62;60.17
72308;BME280;60257;42.638;23.376;2024-01-10T11:41:34;95647.78;;;-1.54;61.04
72308;BME280;60257;42.638;23.376;2024-01-10T11:46:38;95634.91;;;-1.52;60.59
72308;BME280;60257;42.638;23.376;2024-01-10T11:49:07;95641.25;;;-1.41;61.05
72308;BME280;60257;42.638;23.376;2024-01-10T11:51:32;95646.81;;;-1.48;60.19
72308;BME280;60257;42.638;23.376;2024-01-10T11:53:58;95639.59;;;-1.42;60.39
72308;BME280;60257;42.638;23.376;2024-01-10T11:56:38;95627.16;;;-1.48;60.01
72308;BME280;60257;42.638;23.376;2024-01-10T11:59:06;95631.28;;;-1.41;61.84
72308;BME280;60257;42.638;23.376;2024-01-10T12:01:40;95620.78;;;-1.42;60.72
72308;BME280;60257;42.638;23.376;2024-01-10T12:04:07;95623.56;;;-1.54;60.54
72308;BME280;60257;42.638;23.376;2024-01-10T12:06:35;95619.81;;;-1.53;61.31
72308;BME280;60257;42.638;23.376;2024-01-10T12:09:01;95607.31;;;-1.42;61.83
72308;BME280;60257;42.638;23.376;2024-01-10T12:11:33;95613.53;;;-1.42;61.06
72308;BME280;60257;42.638;23.376;2024-01-10T12:13:59;95612.53;;;-1.36;61.49
72308;BME280;60257;42.638;23.376;2024-01-10T12:16:24;95600.22;;;-1.32;61.24
72308;BME280;60257;42.638;23.376;2024-01-10T12:18:50;95602.44;;;-1.24;61.94
72308;BME280;60257;42.638;23.376;2024-01-10T12:21:16;95599.44;;;-1.27;61.78
72308;BME280;60257;42.638;23.376;2024-01-10T12:23:43;95600.22;;;-1.32;61.02
72308;BME280;60257;42.638;23.376;2024-01-10T12:26:10;95596.63;;;-1.37;60.98
72308;BME280;60257;42.638;23.376;2024-01-10T12:28:38;95593.13;;;-1.38;61.84
72308;BME280;60257;42.638;23.376;2024-01-10T12:31:04;95603.38;;;-1.35;61.45
72308;BME280;60257;42.638;23.376;2024-01-10T12:33:31;95599.56;;;-1.39;61.71
72308;BME280;60257;42.638;23.376;2024-01-10T12:36:07;95596.88;;;-1.39;62.85
72308;BME280;60257;42.638;23.376;2024-01-10T12:38:35;95597.06;;;-1.45;63.29
72308;BME280;60257;42.638;23.376;2024-01-10T12:41:00;95596.88;;;-1.39;64.14
72308;BME280;60257;42.638;23.376;2024-01-10T12:43:27;95590.31;;;-1.48;62.51
72308;BME280;60257;42.638;23.376;2024-01-10T12:46:05;95596.19;;;-1.51;61.90
72308;BME280;60257;42.638;23.376;2024-01-10T12:48:31;95601.34;;;-1.66;63.08
72308;BME280;60257;42.638;23.376;2024-01-10T12:50:58;95593.38;;;-1.78;62.97
72308;BME280;60257;42.638;23.376;2024-01-10T12:53:28;95607.97;;;-1.74;63.64
72308;BME280;60257;42.638;23.376;2024-01-10T12:55:55;95610.09;;;-1.76;63.61
72308;BME280;60257;42.638;23.376;2024-01-10T12:58:20;95610.00;;;-1.81;64.34
72308;BME280;60257;42.638;23.376;2024-01-10T13:00:46;95607.09;;;-1.79;64.38
72308;BME280;60257;42.638;23.376;2024-01-10T13:03:11;95606.50;;;-1.81;64.78